Time;durP1;ratioP1;P1;durP2;ratioP2;P2;SDS_P1;SDS_P2;PMS_P1;PMS_P2;Temp;Humidity;BMP_temperature;BMP_pressure;BME280_temperature;BME280_humidity;BME280_pressure;Samples;Min_cycle;Max_cycle;Signal;HPM_P1;HPM_P2
2022/03/17 00:20:49;;;;;;;15.13;7.25;;;;;;;;;;4550255;29;20546;-63
2022/03/17 00:23:15;;;;;;;10.50;7.12;;;;;;;;;;4132693;34;20503;-62
2022/03/17 00:25:41;;;;;;;9.15;5.85;;;;;;;;;;4135534;34;20094;-63
2022/03/17 00:28:08;;;;;;;9.55;6.35;;;;;;;;;;4136117;34;20102;-63
2022/03/17 00:30:34;;;;;;;9.55;6.60;;;;;;;;;;4135580;34;20111;-63
2022/03/17 00:33:00;;;;;;;8.02;6.22;;;;;;;;;;4135915;34;20201;-63
2022/03/17 00:35:35;;;;;;;8.50;6.00;;;;;;;;;;4135412;34;20547;-62
2022/03/17 00:38:03;;;;;;;9.48;7.30;;;;;;;;;;4123307;34;20134;-62
2022/03/17 00:40:30;;;;;;;8.57;6.03;;;;;;;;;;4135607;34;20142;-63
2022/03/17 00:42:56;;;;;;;7.95;6.03;;;;;;;;;;4135805;34;20087;-63
2022/03/17 00:45:24;;;;;;;10.15;6.43;;;;;;;;;;4136388;34;20122;-62
2022/03/17 00:47:50;;;;;;;9.23;5.00;;;;;;;;;;4137782;34;20119;-62
2022/03/17 00:50:16;;;;;;;6.00;4.70;;;;;;;;;;4137517;34;20460;-63
2022/03/17 00:52:42;;;;;;;8.13;5.40;;;;;;;;;;4138034;34;20539;-63
2022/03/17 00:55:08;;;;;;;6.57;4.62;;;;;;;;;;4137564;34;20115;-63
2022/03/17 00:57:36;;;;;;;7.87;5.30;;;;;;;;;;4136368;34;20119;-63
2022/03/17 01:00:05;;;;;;;9.70;5.32;;;;;;;;;;4125324;34;20232;-63
2022/03/17 01:02:31;;;;;;;8.10;5.43;;;;;;;;;;4136166;34;20126;-63
2022/03/17 01:04:57;;;;;;;8.85;5.18;;;;;;;;;;4137477;34;20520;-62
2022/03/17 01:07:24;;;;;;;9.25;5.50;;;;;;;;;;4137643;34;20114;-61
2022/03/17 01:09:50;;;;;;;8.65;5.30;;;;;;;;;;4137645;34;20167;-63
2022/03/17 01:12:16;;;;;;;7.10;5.28;;;;;;;;;;4137674;34;20092;-63
2022/03/17 01:14:42;;;;;;;8.65;5.40;;;;;;;;;;4137666;34;20547;-63
2022/03/17 01:17:08;;;;;;;5.82;4.93;;;;;;;;;;4137512;34;20111;-63
2022/03/17 01:19:34;;;;;;;6.95;5.50;;;;;;;;;;4138132;34;20198;-62
2022/03/17 01:22:00;;;;;;;8.98;5.50;;;;;;;;;;4137535;34;20114;-62
2022/03/17 01:24:26;;;;;;;6.90;5.43;;;;;;;;;;4137534;34;20122;-62
2022/03/17 01:26:52;;;;;;;10.73;5.82;;;;;;;;;;4137193;34;20122;-63
2022/03/17 01:29:19;;;;;;;7.95;5.75;;;;;;;;;;4137664;34;20119;-62
2022/03/17 01:31:46;;;;;;;8.30;5.70;;;;;;;;;;4137257;34;20104;-63
2022/03/17 01:34:12;;;;;;;10.82;5.80;;;;;;;;;;4124833;34;20463;-62
2022/03/17 01:36:38;;;;;;;8.30;5.62;;;;;;;;;;4137350;34;20088;-61
2022/03/17 01:39:04;;;;;;;7.07;5.43;;;;;;;;;;4137764;34;20139;-64
2022/03/17 01:41:30;;;;;;;9.63;6.03;;;;;;;;;;4137492;34;20103;-64
2022/03/17 01:43:56;;;;;;;11.35;6.37;;;;;;;;;;4137462;34;20200;-62
2022/03/17 01:46:22;;;;;;;7.50;6.55;;;;;;;;;;4137025;34;20099;-62
2022/03/17 01:48:48;;;;;;;11.27;6.68;;;;;;;;;;4137317;34;20131;-62
2022/03/17 01:51:14;;;;;;;13.80;8.43;;;;;;;;;;4124722;34;20095;-63
2022/03/17 01:53:41;;;;;;;14.40;10.23;;;;;;;;;;4137164;34;20203;-62
2022/03/17 01:56:07;;;;;;;15.93;9.93;;;;;;;;;;4137055;34;20115;-63
2022/03/17 01:58:34;;;;;;;16.90;9.52;;;;;;;;;;4137213;34;20106;-64
2022/03/17 02:01:00;;;;;;;14.02;10.45;;;;;;;;;;4137089;34;20104;-63
2022/03/17 02:03:27;;;;;;;13.73;10.15;;;;;;;;;;4125024;34;20117;-64
2022/03/17 02:05:56;;;;;;;11.50;8.13;;;;;;;;;;4136678;34;20127;-63
2022/03/17 02:08:22;;;;;;;9.77;7.20;;;;;;;;;;4124617;34;20135;-64
2022/03/17 02:13:32;;;;;;;13.82;8.25;;;;;;;;;;4137147;34;20110;-63
2022/03/17 02:16:01;;;;;;;11.38;7.37;;;;;;;;;;4136885;34;20115;-65
2022/03/17 02:18:28;;;;;;;13.05;7.55;;;;;;;;;;4125270;34;20119;-65
2022/03/17 02:20:55;;;;;;;11.27;8.98;;;;;;;;;;4136868;34;20123;-65
2022/03/17 02:26:06;;;;;;;10.25;6.53;;;;;;;;;;4130210;34;20116;-65
2022/03/17 02:28:33;;;;;;;12.82;6.30;;;;;;;;;;4137018;34;20449;-64
2022/03/17 02:31:01;;;;;;;7.75;6.20;;;;;;;;;;4136883;34;20127;-63
2022/03/17 02:33:27;;;;;;;9.85;6.00;;;;;;;;;;4136992;34;20119;-64
2022/03/17 02:35:53;;;;;;;7.65;5.70;;;;;;;;;;4136761;34;20108;-64
2022/03/17 02:38:21;;;;;;;6.50;5.55;;;;;;;;;;4136617;34;20479;-65
2022/03/17 02:40:51;;;;;;;7.57;6.18;;;;;;;;;;4136701;34;20115;-65
2022/03/17 02:43:18;;;;;;;8.90;6.72;;;;;;;;;;4136919;34;20567;-64
2022/03/17 02:45:44;;;;;;;7.82;5.35;;;;;;;;;;4136790;34;20128;-64
2022/03/17 02:48:11;;;;;;;9.40;6.70;;;;;;;;;;4136751;34;20107;-64
2022/03/17 02:50:37;;;;;;;9.13;6.12;;;;;;;;;;4136806;34;20118;-64
2022/03/17 02:53:08;;;;;;;9.77;6.78;;;;;;;;;;4123605;34;20110;-64
2022/03/17 02:55:35;;;;;;;12.85;6.80;;;;;;;;;;4136710;34;20103;-64
2022/03/17 02:58:01;;;;;;;10.90;7.25;;;;;;;;;;4124196;34;20212;-63
2022/03/17 03:00:27;;;;;;;12.35;6.60;;;;;;;;;;4124366;34;20126;-64
2022/03/17 03:02:53;;;;;;;7.68;5.80;;;;;;;;;;4136983;34;20094;-64
2022/03/17 03:05:19;;;;;;;12.00;6.95;;;;;;;;;;4124135;34;20186;-64
2022/03/17 03:07:45;;;;;;;10.30;6.95;;;;;;;;;;4135998;34;20183;-64
2022/03/17 03:10:11;;;;;;;10.50;6.50;;;;;;;;;;4136209;34;20119;-64
2022/03/17 03:12:37;;;;;;;14.25;7.68;;;;;;;;;;4136632;34;20190;-64
2022/03/17 03:15:04;;;;;;;15.45;7.57;;;;;;;;;;4136427;34;20195;-63
2022/03/17 03:17:30;;;;;;;9.90;6.57;;;;;;;;;;4136567;34;20120;-63
2022/03/17 03:19:56;;;;;;;12.77;7.45;;;;;;;;;;4136572;34;20144;-61
2022/03/17 03:22:22;;;;;;;10.90;6.95;;;;;;;;;;4136312;34;20125;-64
2022/03/17 03:24:48;;;;;;;9.88;6.70;;;;;;;;;;4136378;34;20203;-62
2022/03/17 03:27:14;;;;;;;11.02;6.32;;;;;;;;;;4136282;34;20595;-63
2022/03/17 03:29:40;;;;;;;12.00;8.50;;;;;;;;;;4124189;34;20125;-67
2022/03/17 03:32:07;;;;;;;19.50;11.10;;;;;;;;;;4123702;34;20114;-64
2022/03/17 03:34:33;;;;;;;17.85;10.38;;;;;;;;;;4136431;34;20123;-65
2022/03/17 03:39:44;;;;;;;13.23;7.43;;;;;;;;;;4136376;34;20106;-64
2022/03/17 03:42:11;;;;;;;12.02;7.72;;;;;;;;;;4135565;34;20543;-64
2022/03/17 03:44:37;;;;;;;10.02;7.18;;;;;;;;;;4136328;34;20112;-59
2022/03/17 03:47:04;;;;;;;7.30;6.20;;;;;;;;;;4134382;34;20544;-59
2022/03/17 03:49:30;;;;;;;9.93;7.05;;;;;;;;;;4136182;34;20096;-60
2022/03/17 03:51:56;;;;;;;10.20;7.00;;;;;;;;;;4136147;34;20115;-59
2022/03/17 03:54:22;;;;;;;10.50;6.62;;;;;;;;;;4136168;34;20126;-58
2022/03/17 03:56:50;;;;;;;10.95;6.93;;;;;;;;;;4136110;34;20249;-59
2022/03/17 03:59:21;;;;;;;11.60;6.60;;;;;;;;;;4136290;34;20107;-59
2022/03/17 04:01:53;;;;;;;8.85;7.28;;;;;;;;;;4135992;34;20639;-60
2022/03/17 04:04:20;;;;;;;11.25;5.65;;;;;;;;;;4136117;34;20132;-60
2022/03/17 04:06:49;;;;;;;10.38;5.75;;;;;;;;;;4123313;34;20104;-59
2022/03/17 04:09:18;;;;;;;9.77;6.15;;;;;;;;;;4136326;34;20465;-59
2022/03/17 04:11:45;;;;;;;7.72;5.87;;;;;;;;;;4136058;34;20118;-59
2022/03/17 04:14:12;;;;;;;8.73;6.07;;;;;;;;;;4135780;34;20995;-60
2022/03/17 04:16:38;;;;;;;8.23;5.60;;;;;;;;;;4135582;34;20204;-59
2022/03/17 04:19:04;;;;;;;7.05;5.65;;;;;;;;;;4130547;34;20122;-59
2022/03/17 04:21:31;;;;;;;11.32;6.07;;;;;;;;;;4135805;34;20119;-60
2022/03/17 04:23:57;;;;;;;8.40;5.45;;;;;;;;;;4135887;34;20111;-61
2022/03/17 04:26:23;;;;;;;10.63;6.68;;;;;;;;;;4135797;34;20099;-61
2022/03/17 04:28:49;;;;;;;11.02;7.07;;;;;;;;;;4135843;34;20119;-61
2022/03/17 04:31:15;;;;;;;9.38;6.80;;;;;;;;;;4135722;34;20114;-60
2022/03/17 04:33:41;;;;;;;9.80;7.28;;;;;;;;;;4135761;34;20147;-62
2022/03/17 04:36:10;;;;;;;16.00;9.55;;;;;;;;;;4135943;34;20467;-61
2022/03/17 04:38:36;;;;;;;16.62;9.60;;;;;;;;;;4123301;34;20167;-61
2022/03/17 04:41:03;;;;;;;14.45;9.95;;;;;;;;;;4135537;34;20118;-61
2022/03/17 04:43:29;;;;;;;13.90;9.20;;;;;;;;;;4135888;34;20123;-61
2022/03/17 04:45:55;;;;;;;13.40;8.05;;;;;;;;;;4135941;34;20118;-61
2022/03/17 04:48:21;;;;;;;14.45;7.07;;;;;;;;;;4135504;34;20112;-62
2022/03/17 04:50:47;;;;;;;18.02;8.77;;;;;;;;;;4135558;34;20143;-62
2022/03/17 04:53:30;;;;;;;20.52;8.18;;;;;;;;;;4135539;34;20111;-62
2022/03/17 04:55:57;;;;;;;11.18;7.60;;;;;;;;;;4135387;34;20242;-60
2022/03/17 04:58:23;;;;;;;12.82;6.97;;;;;;;;;;4135555;34;20118;-62
2022/03/17 05:00:52;;;;;;;12.32;7.03;;;;;;;;;;4135485;34;20119;-60
2022/03/17 05:03:19;;;;;;;11.63;6.03;;;;;;;;;;4123125;34;20598;-59
2022/03/17 05:05:46;;;;;;;13.18;7.03;;;;;;;;;;4122869;34;20131;-61
2022/03/17 05:08:12;;;;;;;13.60;7.72;;;;;;;;;;4135419;34;20540;-62
2022/03/17 05:10:38;;;;;;;14.07;8.23;;;;;;;;;;4135676;34;20155;-61
2022/03/17 05:13:05;;;;;;;18.27;7.93;;;;;;;;;;4122858;34;20100;-61
2022/03/17 05:15:31;;;;;;;12.23;7.05;;;;;;;;;;4122708;34;20119;-61
2022/03/17 05:17:57;;;;;;;12.82;6.62;;;;;;;;;;4134001;34;20227;-61
2022/03/17 05:20:24;;;;;;;12.40;6.37;;;;;;;;;;4134815;34;20526;-61
2022/03/17 05:22:51;;;;;;;11.23;6.85;;;;;;;;;;4135451;34;20104;-61
2022/03/17 05:25:18;;;;;;;10.00;6.40;;;;;;;;;;4135186;34;20118;-61
2022/03/17 05:27:45;;;;;;;10.57;7.03;;;;;;;;;;4135315;34;20116;-61
2022/03/17 05:30:15;;;;;;;13.88;6.90;;;;;;;;;;4135002;34;20210;-61
2022/03/17 05:32:45;;;;;;;11.20;8.13;;;;;;;;;;4137233;34;20187;-61
2022/03/17 05:35:12;;;;;;;15.27;9.13;;;;;;;;;;4137157;34;20110;-61
2022/03/17 05:37:42;;;;;;;14.52;9.15;;;;;;;;;;4137412;34;20559;-61
2022/03/17 05:40:13;;;;;;;12.73;8.95;;;;;;;;;;4137029;34;20558;-62
2022/03/17 05:42:40;;;;;;;12.68;8.02;;;;;;;;;;4137448;34;20551;-62
2022/03/17 05:45:07;;;;;;;13.90;8.60;;;;;;;;;;4137180;34;20107;-62
2022/03/17 05:47:37;;;;;;;11.57;7.53;;;;;;;;;;4137542;34;20108;-62
2022/03/17 05:50:06;;;;;;;14.45;7.50;;;;;;;;;;4136985;34;20115;-62
2022/03/17 05:52:32;;;;;;;10.80;7.30;;;;;;;;;;4137037;34;20131;-60
2022/03/17 05:54:58;;;;;;;10.35;6.68;;;;;;;;;;4137008;34;20212;-62
2022/03/17 05:57:24;;;;;;;17.23;6.03;;;;;;;;;;4137372;34;20135;-62
2022/03/17 05:59:50;;;;;;;12.32;6.00;;;;;;;;;;4124661;34;20522;-62
2022/03/17 06:02:16;;;;;;;11.60;6.03;;;;;;;;;;4137376;34;20201;-61
2022/03/17 06:04:42;;;;;;;9.75;5.65;;;;;;;;;;4137406;34;20115;-61
2022/03/17 06:07:08;;;;;;;12.82;6.35;;;;;;;;;;4137138;34;20117;-60
2022/03/17 06:09:34;;;;;;;10.77;7.05;;;;;;;;;;4137610;34;20091;-60
2022/03/17 06:12:00;;;;;;;12.45;5.35;;;;;;;;;;4136999;34;20444;-60
2022/03/17 06:14:27;;;;;;;9.70;6.00;;;;;;;;;;4137079;34;20127;-60
2022/03/17 06:16:54;;;;;;;8.85;5.60;;;;;;;;;;4136772;34;20468;-61
2022/03/17 06:19:20;;;;;;;12.32;5.90;;;;;;;;;;4113925;34;20175;-61
2022/03/17 06:21:46;;;;;;;7.03;5.50;;;;;;;;;;4136801;34;20127;-59
2022/03/17 06:24:12;;;;;;;14.43;6.05;;;;;;;;;;4136650;34;20199;-60
2022/03/17 06:26:38;;;;;;;10.15;6.62;;;;;;;;;;4136922;34;20124;-61
2022/03/17 06:29:04;;;;;;;12.57;6.47;;;;;;;;;;4137017;34;20115;-61
2022/03/17 06:31:30;;;;;;;11.05;6.45;;;;;;;;;;4136835;34;20132;-60
2022/03/17 06:33:56;;;;;;;8.90;6.30;;;;;;;;;;4137120;34;20098;-61
2022/03/17 06:36:22;;;;;;;11.50;6.05;;;;;;;;;;4137025;34;20135;-61
2022/03/17 06:38:48;;;;;;;11.82;5.50;;;;;;;;;;4136836;34;20127;-61
2022/03/17 06:41:14;;;;;;;8.73;5.22;;;;;;;;;;4124142;34;20790;-61
2022/03/17 06:43:40;;;;;;;9.65;6.25;;;;;;;;;;4136053;34;20103;-59
2022/03/17 06:46:08;;;;;;;9.07;5.07;;;;;;;;;;4136908;34;20451;-60
2022/03/17 06:48:34;;;;;;;8.38;5.70;;;;;;;;;;4136797;34;20557;-60
2022/03/17 06:51:00;;;;;;;8.35;5.80;;;;;;;;;;4136626;34;20232;-60
2022/03/17 06:53:27;;;;;;;8.55;5.50;;;;;;;;;;4136711;34;20119;-60
2022/03/17 06:55:53;;;;;;;9.23;5.72;;;;;;;;;;4123916;34;20193;-60
2022/03/17 06:58:19;;;;;;;9.75;5.50;;;;;;;;;;4136659;34;20210;-60
2022/03/17 07:00:45;;;;;;;11.12;6.30;;;;;;;;;;4124161;34;20132;-60
2022/03/17 07:03:10;;;;;;;9.63;6.30;;;;;;;;;;4135472;34;20216;-60
2022/03/17 07:05:36;;;;;;;10.82;6.90;;;;;;;;;;4136523;34;20129;-60
2022/03/17 07:08:03;;;;;;;13.75;6.22;;;;;;;;;;4136412;34;20115;-60
2022/03/17 07:10:29;;;;;;;8.57;5.62;;;;;;;;;;4136449;34;20104;-59
2022/03/17 07:12:56;;;;;;;7.65;5.55;;;;;;;;;;4136656;34;20119;-59
2022/03/17 07:15:22;;;;;;;10.65;5.35;;;;;;;;;;4112721;34;20131;-60
2022/03/17 07:17:48;;;;;;;12.25;5.60;;;;;;;;;;4136838;34;20135;-60
2022/03/17 07:20:16;;;;;;;10.25;5.97;;;;;;;;;;4136242;34;20154;-59
2022/03/17 07:22:43;;;;;;;10.25;5.87;;;;;;;;;;4135201;34;20232;-59
2022/03/17 07:25:10;;;;;;;13.50;6.90;;;;;;;;;;4135027;34;20107;-60
2022/03/17 07:27:40;;;;;;;10.18;7.25;;;;;;;;;;4136166;34;20134;-60
2022/03/17 07:30:20;;;;;;;11.55;6.70;;;;;;;;;;4130923;34;20122;-61
2022/03/17 07:32:55;;;;;;;7.80;6.10;;;;;;;;;;4136505;34;20214;-59
2022/03/17 07:35:25;;;;;;;8.70;6.03;;;;;;;;;;4136206;34;20125;-60
2022/03/17 07:37:52;;;;;;;8.50;6.00;;;;;;;;;;4136351;34;20617;-59
2022/03/17 07:40:19;;;;;;;10.55;6.28;;;;;;;;;;4136173;34;20098;-59
2022/03/17 07:42:45;;;;;;;11.98;6.32;;;;;;;;;;4136346;34;20122;-58
2022/03/17 07:45:11;;;;;;;8.60;6.10;;;;;;;;;;4136062;34;21161;-59
2022/03/17 07:47:47;;;;;;;10.48;5.90;;;;;;;;;;4136279;34;20131;-59
2022/03/17 07:50:13;;;;;;;10.30;6.45;;;;;;;;;;4135973;34;20108;-62
2022/03/17 07:52:39;;;;;;;9.70;6.05;;;;;;;;;;4135611;34;20464;-64
2022/03/17 07:55:06;;;;;;;11.70;6.40;;;;;;;;;;4135917;34;20099;-67
2022/03/17 07:57:35;;;;;;;9.05;6.22;;;;;;;;;;4123760;34;20464;-65
2022/03/17 08:00:02;;;;;;;10.70;6.25;;;;;;;;;;4123653;34;20201;-62
2022/03/17 08:02:28;;;;;;;11.25;6.18;;;;;;;;;;4123995;34;20091;-66
2022/03/17 08:04:55;;;;;;;9.98;6.25;;;;;;;;;;4123516;34;20107;-65
2022/03/17 08:07:22;;;;;;;11.25;6.12;;;;;;;;;;4112596;34;20535;-67
2022/03/17 08:09:48;;;;;;;9.70;6.55;;;;;;;;;;4123602;34;20095;-66
2022/03/17 08:12:14;;;;;;;9.20;6.37;;;;;;;;;;4123378;34;20095;-67
2022/03/17 08:14:40;;;;;;;10.75;6.78;;;;;;;;;;4123524;34;20436;-66
2022/03/17 08:17:06;;;;;;;10.93;6.37;;;;;;;;;;4123470;34;20191;-64
2022/03/17 08:19:32;;;;;;;11.90;7.40;;;;;;;;;;4112658;34;20120;-66
2022/03/17 08:21:58;;;;;;;10.32;7.32;;;;;;;;;;4135622;34;20110;-61
2022/03/17 08:24:24;;;;;;;12.18;7.37;;;;;;;;;;4135814;34;20460;-63
2022/03/17 08:26:52;;;;;;;10.38;7.18;;;;;;;;;;4123468;34;20123;-63
2022/03/17 08:29:18;;;;;;;14.10;7.80;;;;;;;;;;4136207;34;20135;-66
2022/03/17 08:31:44;;;;;;;11.30;7.50;;;;;;;;;;4135842;34;20166;-72
2022/03/17 08:34:10;;;;;;;11.63;6.72;;;;;;;;;;4112444;34;20123;-62
2022/03/17 08:36:36;;;;;;;8.73;5.93;;;;;;;;;;4135839;34;20147;-65
2022/03/17 08:39:02;;;;;;;12.00;7.07;;;;;;;;;;4134455;34;20583;-66
2022/03/17 08:41:28;;;;;;;8.77;5.72;;;;;;;;;;4135788;34;20456;-66
2022/03/17 08:43:55;;;;;;;9.60;6.30;;;;;;;;;;4135803;34;20191;-62
2022/03/17 08:49:24;;;;;;;9.27;6.18;;;;;;;;;;4136119;34;20093;-64
2022/03/17 08:51:53;;;;;;;10.57;6.15;;;;;;;;;;4135530;34;20115;-67
2022/03/17 08:54:24;;;;;;;13.25;6.93;;;;;;;;;;4135577;34;20251;-66
2022/03/17 08:56:59;;;;;;;10.05;6.70;;;;;;;;;;4123382;34;20138;-66
2022/03/17 08:59:36;;;;;;;11.30;6.50;;;;;;;;;;4135731;34;20126;-67
2022/03/17 09:02:05;;;;;;;9.48;6.22;;;;;;;;;;4123139;34;20111;-66
2022/03/17 09:04:31;;;;;;;11.48;6.47;;;;;;;;;;4122853;34;20188;-66
2022/03/17 09:07:00;;;;;;;11.88;6.75;;;;;;;;;;4124094;34;20123;-66
2022/03/17 09:09:29;;;;;;;11.73;6.47;;;;;;;;;;4137663;34;20102;-66
2022/03/17 09:11:55;;;;;;;12.80;6.00;;;;;;;;;;4124757;34;20116;-67
2022/03/17 09:14:22;;;;;;;10.32;6.25;;;;;;;;;;4137488;34;20523;-68
2022/03/17 09:16:48;;;;;;;10.50;6.22;;;;;;;;;;4124825;34;20099;-68
2022/03/17 09:19:15;;;;;;;7.15;5.65;;;;;;;;;;4137702;34;20187;-68
2022/03/17 09:21:41;;;;;;;9.07;5.87;;;;;;;;;;4137485;34;20195;-68
2022/03/17 09:24:07;;;;;;;10.52;5.90;;;;;;;;;;4137404;34;20091;-66
2022/03/17 09:26:34;;;;;;;9.10;5.68;;;;;;;;;;4137505;34;20103;-68
2022/03/17 09:29:00;;;;;;;7.75;5.55;;;;;;;;;;4137573;34;20617;-66
2022/03/17 09:31:26;;;;;;;8.85;5.68;;;;;;;;;;4124919;34;20103;-66
2022/03/17 09:33:52;;;;;;;8.57;5.87;;;;;;;;;;4137734;34;20110;-66
2022/03/17 09:36:18;;;;;;;8.15;5.43;;;;;;;;;;4137006;34;20161;-66
2022/03/17 09:39:39;;;;;;;8.73;6.00;;;;;;;;;;4124950;34;20114;-66
2022/03/17 09:41:33;;;;;;;8.00;5.53;;;;;;;;;;4127249;34;20119;-65
2022/03/17 09:43:59;;;;;;;8.40;5.32;;;;;;;;;;4137334;34;20223;-67
2022/03/17 09:46:27;;;;;;;8.25;5.43;;;;;;;;;;4137294;34;20122;-66
2022/03/17 09:48:54;;;;;;;10.02;5.57;;;;;;;;;;4137438;34;20475;-67
2022/03/17 09:51:25;;;;;;;7.18;5.18;;;;;;;;;;4137284;34;20197;-66
2022/03/17 09:53:53;;;;;;;9.05;5.68;;;;;;;;;;4137490;34;20100;-65
2022/03/17 09:56:23;;;;;;;8.30;5.95;;;;;;;;;;4124909;34;20096;-66
2022/03/17 09:58:54;;;;;;;10.07;6.40;;;;;;;;;;4137308;34;20111;-67
2022/03/17 10:01:21;;;;;;;7.62;5.35;;;;;;;;;;4137057;34;20115;-66
2022/03/17 10:03:47;;;;;;;9.85;5.70;;;;;;;;;;4125033;34;20189;-66
2022/03/17 10:06:15;;;;;;;8.73;5.20;;;;;;;;;;4135751;34;20612;-66
2022/03/17 10:08:42;;;;;;;7.60;5.68;;;;;;;;;;4136838;34;20087;-66
2022/03/17 10:11:08;;;;;;;7.35;5.50;;;;;;;;;;4137076;34;20127;-67
2022/03/17 10:13:43;;;;;;;7.47;6.10;;;;;;;;;;4124580;34;20118;-67
2022/03/17 10:16:20;;;;;;;8.73;5.62;;;;;;;;;;4124761;34;20103;-68
2022/03/17 10:18:46;;;;;;;7.87;5.68;;;;;;;;;;4136935;34;20119;-67
2022/03/17 10:21:16;;;;;;;12.10;5.12;;;;;;;;;;4136689;34;20096;-66
2022/03/17 10:23:50;;;;;;;7.20;4.90;;;;;;;;;;4113712;34;20571;-63
2022/03/17 10:26:35;;;;;;;8.05;5.30;;;;;;;;;;4136956;34;20137;-62
2022/03/17 10:29:15;;;;;;;7.90;5.22;;;;;;;;;;4137066;34;20110;-62
2022/03/17 10:32:06;;;;;;;9.57;6.20;;;;;;;;;;4136834;34;20212;-62
2022/03/17 10:34:36;;;;;;;7.62;6.15;;;;;;;;;;4137042;34;20119;-63
2022/03/17 10:37:11;;;;;;;9.70;6.07;;;;;;;;;;4136904;34;20544;-61
2022/03/17 10:39:42;;;;;;;10.70;5.37;;;;;;;;;;4136958;34;20143;-64
2022/03/17 10:42:12;;;;;;;10.90;5.80;;;;;;;;;;4135901;34;20269;-63
2022/03/17 10:44:44;;;;;;;6.78;4.97;;;;;;;;;;4136589;34;20526;-60
2022/03/17 10:47:10;;;;;;;8.93;5.50;;;;;;;;;;4136048;34;20107;-61
2022/03/17 10:49:37;;;;;;;8.68;5.80;;;;;;;;;;4137032;34;20528;-61
2022/03/17 10:52:03;;;;;;;11.18;5.85;;;;;;;;;;4136451;34;20192;-62
2022/03/17 10:54:29;;;;;;;10.02;5.78;;;;;;;;;;4134551;34;20119;-62
2022/03/17 10:57:10;;;;;;;8.73;6.00;;;;;;;;;;4136494;34;20237;-64
2022/03/17 10:59:44;;;;;;;8.75;5.65;;;;;;;;;;4134752;34;20131;-64
2022/03/17 11:02:17;;;;;;;7.30;5.22;;;;;;;;;;4136514;34;20126;-63
2022/03/17 11:04:44;;;;;;;8.70;5.32;;;;;;;;;;4134164;34;20108;-64
2022/03/17 11:07:16;;;;;;;7.47;5.35;;;;;;;;;;4133628;34;20107;-64
2022/03/17 11:09:43;;;;;;;10.05;5.30;;;;;;;;;;4133134;34;20118;-64
2022/03/17 11:12:12;;;;;;;10.02;5.53;;;;;;;;;;4133238;34;20123;-65
2022/03/17 11:14:47;;;;;;;7.97;5.47;;;;;;;;;;4133326;34;20120;-64
2022/03/17 11:17:36;;;;;;;9.10;5.28;;;;;;;;;;4135311;34;20207;-69
2022/03/17 11:20:11;;;;;;;8.40;5.35;;;;;;;;;;4137079;34;20123;-73
2022/03/17 11:22:37;;;;;;;9.20;5.45;;;;;;;;;;4126254;34;20115;-68
2022/03/17 11:25:19;;;;;;;10.30;5.12;;;;;;;;;;4127922;34;20212;-69
2022/03/17 11:27:47;;;;;;;10.82;5.68;;;;;;;;;;4136540;34;20620;-71
2022/03/17 11:30:14;;;;;;;7.22;5.55;;;;;;;;;;4122983;34;20103;-69
2022/03/17 11:32:55;;;;;;;6.62;5.10;;;;;;;;;;4112937;34;20532;-68
2022/03/17 11:35:28;;;;;;;7.47;4.70;;;;;;;;;;4136367;34;20119;-68
2022/03/17 11:38:13;;;;;;;10.25;5.80;;;;;;;;;;4124477;34;20465;-68
2022/03/17 11:41:02;;;;;;;11.73;5.75;;;;;;;;;;4136230;34;20100;-68
2022/03/17 11:43:41;;;;;;;7.22;5.78;;;;;;;;;;4129801;34;20124;-68
2022/03/17 11:46:36;;;;;;;9.27;5.20;;;;;;;;;;4112326;34;20132;-70
2022/03/17 11:49:18;;;;;;;8.85;5.82;;;;;;;;;;4132552;34;20158;-69
2022/03/17 11:51:57;;;;;;;9.90;5.87;;;;;;;;;;4112629;34;20527;-69
2022/03/17 11:54:23;;;;;;;7.72;5.10;;;;;;;;;;4124058;34;20111;-69
2022/03/17 11:56:55;;;;;;;7.05;5.03;;;;;;;;;;4123597;34;20217;-71
2022/03/17 11:59:26;;;;;;;6.90;4.70;;;;;;;;;;4136580;34;20113;-69
2022/03/17 12:01:55;;;;;;;7.47;5.20;;;;;;;;;;4136235;34;20178;-68
2022/03/17 12:04:33;;;;;;;8.30;4.68;;;;;;;;;;4123753;34;20112;-69
2022/03/17 12:07:13;;;;;;;9.38;5.57;;;;;;;;;;4135653;34;20115;-69
2022/03/17 12:09:39;;;;;;;8.18;5.87;;;;;;;;;;4136133;34;20481;-72
2022/03/17 12:12:19;;;;;;;8.65;5.37;;;;;;;;;;4122973;34;20099;-72
2022/03/17 12:14:50;;;;;;;9.85;5.25;;;;;;;;;;4133514;34;20126;-72
2022/03/17 12:17:17;;;;;;;9.02;6.82;;;;;;;;;;4121615;34;20208;-69
2022/03/17 12:19:51;;;;;;;11.38;6.07;;;;;;;;;;4110209;34;20124;-69
2022/03/17 12:22:39;;;;;;;8.15;5.75;;;;;;;;;;4122797;34;20092;-69
2022/03/17 12:25:13;;;;;;;6.72;4.80;;;;;;;;;;4132056;34;20115;-69
2022/03/17 12:27:40;;;;;;;6.00;5.07;;;;;;;;;;4136343;34;20440;-70
2022/03/17 12:30:07;;;;;;;10.00;6.05;;;;;;;;;;4136000;34;20271;-69
2022/03/17 12:32:36;;;;;;;8.25;5.80;;;;;;;;;;4136019;34;20130;-70
2022/03/17 12:35:03;;;;;;;8.20;5.50;;;;;;;;;;4135889;34;20104;-69
2022/03/17 12:37:31;;;;;;;9.60;5.82;;;;;;;;;;4123791;34;20138;-69
2022/03/17 12:39:58;;;;;;;7.35;5.70;;;;;;;;;;4123618;34;20137;-69
2022/03/17 12:42:25;;;;;;;12.52;5.78;;;;;;;;;;4138209;34;20127;-69
2022/03/17 12:45:04;;;;;;;12.15;7.00;;;;;;;;;;4125474;34;20535;-62
2022/03/17 12:47:31;;;;;;;8.52;5.45;;;;;;;;;;4137898;34;20472;-62
2022/03/17 12:49:59;;;;;;;7.70;5.07;;;;;;;;;;4137897;34;20111;-64
2022/03/17 12:52:26;;;;;;;8.23;4.70;;;;;;;;;;4125406;34;20091;-65
2022/03/17 12:54:55;;;;;;;9.93;6.82;;;;;;;;;;4137719;34;20508;-67
2022/03/17 12:57:22;;;;;;;10.90;7.87;;;;;;;;;;4137925;34;20192;-66
2022/03/17 12:59:49;;;;;;;10.07;6.60;;;;;;;;;;4125562;34;20088;-68
2022/03/17 13:02:19;;;;;;;6.78;5.20;;;;;;;;;;4137892;34;20096;-68
2022/03/17 13:04:50;;;;;;;7.12;4.78;;;;;;;;;;4137998;34;20116;-69
2022/03/17 13:07:17;;;;;;;8.98;4.75;;;;;;;;;;4137789;34;20215;-67
2022/03/17 13:09:44;;;;;;;9.57;5.43;;;;;;;;;;4137724;34;20095;-68
2022/03/17 13:14:56;;;;;;;11.12;6.00;;;;;;;;;;4127106;34;20527;-67
2022/03/17 13:17:36;;;;;;;11.20;6.47;;;;;;;;;;4137698;34;20111;-69
2022/03/17 13:20:08;;;;;;;8.57;5.85;;;;;;;;;;4137711;34;20107;-70
2022/03/17 13:22:39;;;;;;;10.43;6.60;;;;;;;;;;4125185;34;20560;-69
2022/03/17 13:25:10;;;;;;;8.30;4.82;;;;;;;;;;4137655;34;20184;-69
2022/03/17 13:27:56;;;;;;;5.53;4.15;;;;;;;;;;4137669;34;20120;-68
2022/03/17 13:30:23;;;;;;;5.87;3.85;;;;;;;;;;4137788;34;20179;-69
2022/03/17 13:33:06;;;;;;;7.20;3.70;;;;;;;;;;4125084;34;20091;-68
2022/03/17 13:35:35;;;;;;;6.97;4.37;;;;;;;;;;4125229;34;20138;-68
2022/03/17 13:38:10;;;;;;;6.03;4.35;;;;;;;;;;4137857;34;20103;-69
2022/03/17 13:40:51;;;;;;;8.70;4.45;;;;;;;;;;4136158;34;20106;-68
2022/03/17 13:43:30;;;;;;;7.07;4.20;;;;;;;;;;4122863;34;20115;-68
2022/03/17 13:45:57;;;;;;;4.43;4.00;;;;;;;;;;4134611;34;20480;-67
2022/03/17 13:48:26;;;;;;;5.25;4.20;;;;;;;;;;4135743;34;20239;-69
2022/03/17 13:50:54;;;;;;;6.20;4.45;;;;;;;;;;4137551;34;20535;-68
2022/03/17 13:53:30;;;;;;;6.55;3.80;;;;;;;;;;4137043;34;20603;-68
2022/03/17 13:55:58;;;;;;;8.63;4.12;;;;;;;;;;4137632;34;20574;-68
2022/03/17 13:58:45;;;;;;;4.28;3.40;;;;;;;;;;4137387;34;20232;-68
2022/03/17 14:01:16;;;;;;;9.23;4.05;;;;;;;;;;4125345;34;20543;-67
2022/03/17 14:03:57;;;;;;;6.87;4.70;;;;;;;;;;4137394;34;20537;-68
2022/03/17 14:06:33;;;;;;;7.37;4.55;;;;;;;;;;4113798;34;20127;-69
2022/03/17 14:09:06;;;;;;;9.35;4.80;;;;;;;;;;4134133;34;20117;-69
2022/03/17 14:11:33;;;;;;;8.48;5.00;;;;;;;;;;4123696;34;20111;-68
2022/03/17 14:14:07;;;;;;;8.05;5.32;;;;;;;;;;4124712;34;20139;-70
2022/03/17 14:16:35;;;;;;;9.43;5.05;;;;;;;;;;4124749;34;20119;-68
2022/03/17 14:19:02;;;;;;;7.30;5.43;;;;;;;;;;4137146;34;20123;-69
2022/03/17 14:21:29;;;;;;;8.15;6.32;;;;;;;;;;4124720;34;20464;-70
2022/03/17 14:24:12;;;;;;;9.88;6.60;;;;;;;;;;4135707;34;20103;-65
2022/03/17 14:26:45;;;;;;;7.60;6.20;;;;;;;;;;4124922;34;20653;-65
2022/03/17 14:29:13;;;;;;;9.68;7.43;;;;;;;;;;4137058;34;20550;-64
2022/03/17 14:31:41;;;;;;;7.82;6.72;;;;;;;;;;4137570;34;20110;-64
2022/03/17 14:34:08;;;;;;;10.13;7.03;;;;;;;;;;4137025;34;20108;-64
2022/03/17 14:36:36;;;;;;;9.98;7.65;;;;;;;;;;4137260;34;20130;-65
2022/03/17 14:39:08;;;;;;;10.35;6.60;;;;;;;;;;4137059;34;20122;-64
2022/03/17 14:41:35;;;;;;;10.00;7.30;;;;;;;;;;4137200;34;20224;-64
2022/03/17 14:44:02;;;;;;;9.65;7.15;;;;;;;;;;4136975;34;20123;-64
2022/03/17 14:46:28;;;;;;;15.45;8.43;;;;;;;;;;4137009;34;20107;-64
2022/03/17 14:48:56;;;;;;;13.18;8.52;;;;;;;;;;4137056;34;20106;-67
2022/03/17 14:51:22;;;;;;;11.52;7.93;;;;;;;;;;4135915;34;20096;-67
2022/03/17 14:53:49;;;;;;;12.63;7.60;;;;;;;;;;4136757;34;20131;-65
2022/03/17 14:56:17;;;;;;;15.38;8.18;;;;;;;;;;4133960;34;20460;-64
2022/03/17 14:58:44;;;;;;;10.57;6.87;;;;;;;;;;4136805;34;20099;-65
2022/03/17 15:01:12;;;;;;;11.05;7.82;;;;;;;;;;4135620;34;20107;-64
2022/03/17 15:03:41;;;;;;;11.80;7.70;;;;;;;;;;4134735;34;20131;-66
2022/03/17 15:06:09;;;;;;;15.13;8.88;;;;;;;;;;4122525;34;20107;-65
2022/03/17 15:08:36;;;;;;;14.85;8.23;;;;;;;;;;4136567;34;20567;-62
2022/03/17 15:11:03;;;;;;;14.48;8.63;;;;;;;;;;4130076;34;20122;-63
2022/03/17 15:13:29;;;;;;;13.62;8.75;;;;;;;;;;4136751;34;20123;-61
2022/03/17 15:15:56;;;;;;;14.35;8.02;;;;;;;;;;4112913;34;20119;-62
2022/03/17 15:18:22;;;;;;;12.55;7.97;;;;;;;;;;4136215;34;20115;-63